Time;durP1;ratioP1;P1;durP2;ratioP2;P2;SDS_P1;SDS_P2;PMS_P1;PMS_P2;Temp;Humidity;BMP_temperature;BMP_pressure;BME280_temperature;BME280_humidity;BME280_pressure;Samples;Min_cycle;Max_cycle;Signal;HPM_P1;HPM_P2
2021/05/23 00:00:01;;;;;;;;;;;;;;;27.63;31.21;100763.38;5058825;28;810;-28
2021/05/23 00:02:26;;;;;;;;;;;;;;;27.67;30.98;100758.44;5059057;28;791;-35
2021/05/23 00:04:51;;;;;;;;;;;;;;;27.61;31.06;100765.41;5057616;28;851;-28
2021/05/23 00:07:17;;;;;;;;;;;;;;;27.68;31.38;100762.84;5058884;28;1894;-29
2021/05/23 00:09:42;;;;;;;;;;;;;;;27.58;31.60;100757.69;5058870;28;740;-29
2021/05/23 00:12:09;;;;;;;;;;;;;;;27.63;31.55;100752.56;5057921;28;1360;-34
2021/05/23 00:14:34;;;;;;;;;;;;;;;27.65;31.56;100748.81;5058519;28;815;-28
2021/05/23 00:16:59;;;;;;;;;;;;;;;27.59;31.69;100745.03;5058781;28;810;-32
2021/05/23 00:19:25;;;;;;;;;;;;;;;27.59;31.72;100747.72;5058367;28;732;-35
2021/05/23 00:21:50;;;;;;;;;;;;;;;27.61;31.40;100754.59;5058700;28;819;-29
2021/05/23 00:24:15;;;;;;;;;;;;;;;27.61;31.69;100756.50;5058826;28;748;-35
2021/05/23 00:26:40;;;;;;;;;;;;;;;27.62;31.74;100755.44;5057614;28;1011;-28
2021/05/23 00:29:06;;;;;;;;;;;;;;;27.66;31.39;100750.53;5058321;28;1977;-35
2021/05/23 00:31:31;;;;;;;;;;;;;;;27.66;31.79;100740.53;5058550;28;799;-28
2021/05/23 00:33:57;;;;;;;;;;;;;;;27.62;31.69;100737.38;5058422;28;763;-29
2021/05/23 00:36:22;;;;;;;;;;;;;;;27.61;31.93;100738.38;5058046;28;771;-34
2021/05/23 00:38:48;;;;;;;;;;;;;;;27.56;31.81;100735.41;5058327;28;810;-35
2021/05/23 00:41:13;;;;;;;;;;;;;;;27.62;31.81;100739.25;5058018;28;940;-35
2021/05/23 00:43:39;;;;;;;;;;;;;;;27.64;31.96;100742.59;5057759;28;976;-29
2021/05/23 00:46:04;;;;;;;;;;;;;;;27.62;31.88;100745.50;5058322;28;759;-34
2021/05/23 00:48:29;;;;;;;;;;;;;;;27.60;32.08;100744.84;5058458;28;1902;-31
2021/05/23 00:50:54;;;;;;;;;;;;;;;27.64;31.91;100750.72;5057516;28;811;-35
2021/05/23 00:53:20;;;;;;;;;;;;;;;27.61;32.18;100749.19;5058119;28;1049;-28
2021/05/23 00:55:45;;;;;;;;;;;;;;;27.63;32.15;100740.91;5057774;28;800;-35
2021/05/23 00:58:10;;;;;;;;;;;;;;;27.60;31.92;100742.13;5056712;28;995;-29
2021/05/23 01:00:37;;;;;;;;;;;;;;;27.61;31.97;100737.56;5057682;28;779;-36
2021/05/23 01:03:02;;;;;;;;;;;;;;;27.62;32.34;100741.94;5057725;28;768;-28
2021/05/23 01:05:27;;;;;;;;;;;;;;;27.68;32.15;100737.63;5057454;28;851;-28
2021/05/23 01:07:53;;;;;;;;;;;;;;;27.69;32.15;100742.91;5057846;28;1910;-33
2021/05/23 01:10:18;;;;;;;;;;;;;;;27.62;32.26;100742.78;5057621;28;776;-35
2021/05/23 01:12:53;;;;;;;;;;;;;;;27.63;32.41;100749.88;5024550;28;1252;-28
2021/05/23 01:15:19;;;;;;;;;;;;;;;27.65;32.42;100746.97;5037599;28;824;-28
2021/05/23 01:17:45;;;;;;;;;;;;;;;27.60;32.56;100750.25;5019957;28;1276;-29
2021/05/23 01:20:15;;;;;;;;;;;;;;;27.61;32.26;100749.19;5019573;28;867;-34
2021/05/23 01:22:41;;;;;;;;;;;;;;;27.60;32.40;100746.69;5019970;28;833;-29
2021/05/23 01:25:06;;;;;;;;;;;;;;;27.66;32.45;100753.22;5037670;28;821;-28
2021/05/23 01:27:44;;;;;;;;;;;;;;;27.63;32.66;100752.56;5048365;28;1918;-29
2021/05/23 01:30:10;;;;;;;;;;;;;;;27.63;32.29;100752.56;5057413;28;772;-28
2021/05/23 01:32:35;;;;;;;;;;;;;;;27.66;32.43;100751.34;5057451;28;756;-34
2021/05/23 01:35:02;;;;;;;;;;;;;;;27.65;32.32;100751.53;5057003;28;809;-29
2021/05/23 01:37:28;;;;;;;;;;;;;;;27.64;32.44;100753.41;5039139;28;1374;-34
2021/05/23 01:39:53;;;;;;;;;;;;;;;27.67;32.44;100752.19;5057020;28;795;-35
2021/05/23 01:42:18;;;;;;;;;;;;;;;27.62;32.83;100756.31;5056259;28;948;-35
2021/05/23 01:44:47;;;;;;;;;;;;;;;27.59;32.63;100753.94;5039045;28;852;-34
2021/05/23 01:47:12;;;;;;;;;;;;;;;27.63;32.81;100759.81;5038869;28;1906;-28
2021/05/23 01:49:37;;;;;;;;;;;;;;;27.63;32.97;100759.81;5056766;28;771;-29
2021/05/23 01:52:03;;;;;;;;;;;;;;;27.61;32.82;100765.41;5056993;28;866;-28
2021/05/23 01:54:28;;;;;;;;;;;;;;;27.67;32.57;100763.00;5057602;28;720;-28
2021/05/23 01:56:53;;;;;;;;;;;;;;;27.62;32.87;100767.13;5056148;28;955;-34
2021/05/23 01:59:19;;;;;;;;;;;;;;;27.62;33.03;100747.34;5056835;28;716;-35
2021/05/23 02:01:44;;;;;;;;;;;;;;;27.57;32.98;100750.63;5056907;28;806;-28
2021/05/23 02:04:09;;;;;;;;;;;;;;;27.60;33.21;100747.53;5056529;28;920;-32
2021/05/23 02:06:35;;;;;;;;;;;;;;;27.66;32.75;100750.53;5038601;28;853;-35
2021/05/23 02:09:00;;;;;;;;;;;;;;;27.69;33.01;100758.28;5056555;28;1960;-30
2021/05/23 02:11:25;;;;;;;;;;;;;;;27.62;32.93;100753.59;5038306;28;1157;-31
2021/05/23 02:13:51;;;;;;;;;;;;;;;27.63;32.97;100754.41;5056911;28;794;-28
2021/05/23 02:16:17;;;;;;;;;;;;;;;27.66;33.16;100751.34;5056680;28;767;-34
2021/05/23 02:18:44;;;;;;;;;;;;;;;27.67;33.16;100757.59;5056029;28;852;-28
2021/05/23 02:21:09;;;;;;;;;;;;;;;27.65;32.97;100757.78;5056572;28;831;-33
2021/05/23 02:23:34;;;;;;;;;;;;;;;27.67;33.36;100760.28;5056574;28;839;-35
2021/05/23 02:26:00;;;;;;;;;;;;;;;27.61;33.34;100762.72;5056344;28;783;-35
2021/05/23 02:28:25;;;;;;;;;;;;;;;27.62;33.10;100761.72;5058628;28;1968;-31
2021/05/23 02:30:54;;;;;;;;;;;;;;;27.67;33.40;100755.75;5060840;28;840;-34
2021/05/23 02:33:20;;;;;;;;;;;;;;;27.66;33.24;100764.03;5060335;28;807;-29
2021/05/23 02:35:49;;;;;;;;;;;;;;;27.63;33.40;100757.97;5060618;28;748;-28
2021/05/23 02:38:14;;;;;;;;;;;;;;;27.59;33.16;100753.94;5060731;28;902;-34
2021/05/23 02:40:40;;;;;;;;;;;;;;;27.62;33.46;100759.00;5059970;28;807;-28
2021/05/23 02:43:06;;;;;;;;;;;;;;;27.63;33.43;100768.78;5059750;28;992;-33
2021/05/23 02:45:32;;;;;;;;;;;;;;;27.60;33.39;100776.41;5060639;28;772;-28
2021/05/23 02:47:57;;;;;;;;;;;;;;;27.69;33.02;100782.59;5059481;28;1955;-35
2021/05/23 02:50:23;;;;;;;;;;;;;;;27.63;33.25;100779.59;5060435;28;736;-28
2021/05/23 02:52:49;;;;;;;;;;;;;;;27.65;33.51;100770.44;5060442;28;733;-34
2021/05/23 02:55:16;;;;;;;;;;;;;;;27.65;33.19;100770.44;5059848;28;823;-28
2021/05/23 02:57:41;;;;;;;;;;;;;;;27.66;33.58;100780.25;5060053;28;947;-28
2021/05/23 03:00:08;;;;;;;;;;;;;;;27.62;33.57;100774.38;5060128;28;759;-34
2021/05/23 03:02:33;;;;;;;;;;;;;;;27.67;33.52;100792.72;5059549;28;753;-28
2021/05/23 03:04:58;;;;;;;;;;;;;;;27.65;33.59;100800.16;5060233;28;757;-35
2021/05/23 03:07:24;;;;;;;;;;;;;;;27.65;33.50;100794.75;5059932;28;1959;-34
2021/05/23 03:09:49;;;;;;;;;;;;;;;27.73;33.48;100792.00;5059524;28;736;-34
2021/05/23 03:12:14;;;;;;;;;;;;;;;26.97;29.40;100788.28;5059403;28;1277;-33
2021/05/23 03:14:41;;;;;;;;;;;;;;;25.63;29.62;100785.38;5060230;28;750;-34
2021/05/23 03:17:07;;;;;;;;;;;;;;;25.48;29.46;100802.22;5058506;28;1100;-34
2021/05/23 03:19:33;;;;;;;;;;;;;;;25.27;29.74;100800.91;5059604;28;859;-33
2021/05/23 03:21:58;;;;;;;;;;;;;;;25.22;29.81;100797.88;5059291;28;908;-29
2021/05/23 03:24:24;;;;;;;;;;;;;;;25.17;30.01;100811.00;5059184;28;740;-33
2021/05/23 03:26:49;;;;;;;;;;;;;;;25.14;30.25;100804.09;5059220;28;971;-29
2021/05/23 03:29:14;;;;;;;;;;;;;;;25.22;30.91;100800.59;5059398;28;1922;-36
2021/05/23 03:31:40;;;;;;;;;;;;;;;25.50;30.85;100791.28;5059202;28;986;-31
2021/05/23 03:34:05;;;;;;;;;;;;;;;25.49;30.81;100800.38;5059665;28;788;-33
2021/05/23 03:36:30;;;;;;;;;;;;;;;25.33;30.78;100807.47;5059392;28;827;-35
2021/05/23 03:38:55;;;;;;;;;;;;;;;25.21;30.46;100803.44;5059312;28;795;-32
2021/05/23 03:41:21;;;;;;;;;;;;;;;25.17;30.48;100811.00;5058839;28;1101;-35
2021/05/23 03:43:46;;;;;;;;;;;;;;;25.18;30.27;100816.22;5059206;28;772;-36
2021/05/23 03:46:11;;;;;;;;;;;;;;;25.14;30.57;100816.72;5059505;28;795;-34
2021/05/23 03:48:37;;;;;;;;;;;;;;;25.18;30.60;100808.16;5058733;28;1981;-32
2021/05/23 03:51:02;;;;;;;;;;;;;;;25.16;30.88;100812.84;5057962;28;1123;-36
2021/05/23 03:53:27;;;;;;;;;;;;;;;24.83;30.90;100804.72;5059404;28;783;-29
2021/05/23 03:55:52;;;;;;;;;;;;;;;24.68;31.22;100808.06;5058578;28;1409;-37
2021/05/23 03:58:18;;;;;;;;;;;;;;;24.92;31.48;100806.44;5058581;28;999;-38
2021/05/23 04:00:43;;;;;;;;;;;;;;;24.96;31.53;100801.56;5059126;28;813;-39
2021/05/23 04:03:08;;;;;;;;;;;;;;;24.78;31.58;100815.13;5057851;28;1308;-40
2021/05/23 04:05:34;;;;;;;;;;;;;;;24.78;31.53;100824.06;5059085;28;808;-39
2021/05/23 04:07:59;;;;;;;;;;;;;;;24.76;31.27;100830.59;5059364;28;1905;-31
2021/05/23 04:10:28;;;;;;;;;;;;;;;24.83;31.55;100826.25;5058393;28;779;-37
2021/05/23 04:12:55;;;;;;;;;;;;;;;24.88;31.74;100833.81;5051766;28;1182;-36
2021/05/23 04:15:21;;;;;;;;;;;;;;;24.76;32.23;100835.97;5055227;28;1321;-31
2021/05/23 04:17:46;;;;;;;;;;;;;;;24.80;32.38;100834.66;5040931;28;879;-35
2021/05/23 04:20:13;;;;;;;;;;;;;;;24.78;32.60;100842.03;5058216;28;1076;-31
2021/05/23 04:22:38;;;;;;;;;;;;;;;24.82;32.57;100846.91;5038992;28;764;-36
2021/05/23 04:25:06;;;;;;;;;;;;;;;24.80;32.70;100848.97;5038827;28;895;-35
2021/05/23 04:27:31;;;;;;;;;;;;;;;24.74;33.00;100857.66;5038101;28;1922;-35
2021/05/23 04:29:57;;;;;;;;;;;;;;;24.74;33.01;100854.16;5038616;28;788;-31
2021/05/23 04:32:22;;;;;;;;;;;;;;;24.79;33.24;100860.72;5038858;28;764;-36
2021/05/23 04:34:47;;;;;;;;;;;;;;;24.78;33.54;100861.72;5038206;28;938;-30
2021/05/23 04:37:15;;;;;;;;;;;;;;;24.84;33.60;100860.22;5038703;28;800;-35
2021/05/23 04:39:40;;;;;;;;;;;;;;;24.79;33.81;100866.09;5038112;28;828;-32
2021/05/23 04:42:06;;;;;;;;;;;;;;;24.80;33.85;100864.25;5038313;28;817;-35
2021/05/23 04:44:31;;;;;;;;;;;;;;;24.85;33.89;100872.69;5054221;28;949;-35
2021/05/23 04:46:56;;;;;;;;;;;;;;;24.86;33.91;100870.84;5058313;28;807;-37
2021/05/23 04:49:21;;;;;;;;;;;;;;;24.85;33.90;100869.13;5057903;28;1977;-36
2021/05/23 04:51:47;;;;;;;;;;;;;;;24.87;34.01;100873.34;5057370;28;803;-32
2021/05/23 04:54:12;;;;;;;;;;;;;;;24.92;33.99;100870.19;5056635;28;1147;-34
2021/05/23 04:56:37;;;;;;;;;;;;;;;24.89;34.06;100878.56;5058084;28;835;-35
2021/05/23 04:59:03;;;;;;;;;;;;;;;24.91;34.11;100877.41;5056905;28;999;-35
2021/05/23 05:01:28;;;;;;;;;;;;;;;24.94;34.17;100868.19;5057917;28;803;-31
2021/05/23 05:03:53;;;;;;;;;;;;;;;24.96;34.60;100870.72;5057754;28;835;-32
2021/05/23 05:06:18;;;;;;;;;;;;;;;24.98;34.58;100876.75;5057504;28;772;-36
2021/05/23 05:08:46;;;;;;;;;;;;;;;24.98;34.38;100877.59;5057502;28;1910;-37
2021/05/23 05:11:11;;;;;;;;;;;;;;;25.00;34.62;100885.50;5057788;28;1144;-35
2021/05/23 05:13:36;;;;;;;;;;;;;;;25.02;34.32;100880.81;5056980;28;1322;-31
2021/05/23 05:16:01;;;;;;;;;;;;;;;25.09;34.24;100886.38;5057493;28;835;-32
2021/05/23 05:18:27;;;;;;;;;;;;;;;25.06;34.07;100887.53;5057441;28;783;-36
2021/05/23 05:20:54;;;;;;;;;;;;;;;25.18;34.08;100883.53;5057517;28;839;-35
2021/05/23 05:23:19;;;;;;;;;;;;;;;25.10;34.39;100878.13;5057565;28;1245;-31
2021/05/23 05:25:44;;;;;;;;;;;;;;;25.05;34.66;100889.41;5057560;28;803;-35
2021/05/23 05:28:09;;;;;;;;;;;;;;;25.10;34.78;100888.91;5056832;28;1910;-32
2021/05/23 05:30:35;;;;;;;;;;;;;;;25.18;34.54;100893.44;5057435;28;819;-37
2021/05/23 05:33:00;;;;;;;;;;;;;;;25.26;34.39;100882.69;5057183;28;572;-35
2021/05/23 05:35:25;;;;;;;;;;;;;;;25.21;34.44;100890.41;5057107;28;775;-37
2021/05/23 05:37:50;;;;;;;;;;;;;;;25.26;34.40;100892.59;5057104;28;839;-36
2021/05/23 05:40:16;;;;;;;;;;;;;;;25.40;34.49;100901.88;5057295;28;803;-37
2021/05/23 05:42:41;;;;;;;;;;;;;;;25.38;34.72;100899.34;5056561;28;979;-32
2021/05/23 05:45:07;;;;;;;;;;;;;;;25.35;34.92;100907.78;5057108;28;828;-35
2021/05/23 05:47:32;;;;;;;;;;;;;;;25.43;34.96;100902.38;5057166;28;1905;-37
2021/05/23 05:49:57;;;;;;;;;;;;;;;25.39;35.02;100905.59;5056597;28;772;-37
2021/05/23 05:52:23;;;;;;;;;;;;;;;25.38;34.86;100911.97;5056699;28;550;-38
2021/05/23 05:54:48;;;;;;;;;;;;;;;25.46;35.05;100905.75;5057098;28;799;-33
2021/05/23 05:57:13;;;;;;;;;;;;;;;25.48;34.78;100904.56;5056533;28;871;-33
2021/05/23 05:59:39;;;;;;;;;;;;;;;25.49;34.70;100908.94;5057153;28;940;-39
2021/05/23 06:02:06;;;;;;;;;;;;;;;25.47;34.82;100893.97;5056277;28;800;-39
2021/05/23 06:04:31;;;;;;;;;;;;;;;25.50;35.15;100897.19;5056345;28;838;-32
2021/05/23 06:06:56;;;;;;;;;;;;;;;25.53;34.90;100902.22;5056962;28;794;-37
2021/05/23 06:09:23;;;;;;;;;;;;;;;25.62;34.94;100899.53;5056660;28;1973;-31
2021/05/23 06:11:48;;;;;;;;;;;;;;;25.61;34.75;100895.97;5056160;28;1150;-38
2021/05/23 06:14:14;;;;;;;;;;;;;;;25.65;34.88;100891.13;5056781;28;1017;-37
2021/05/23 06:16:39;;;;;;;;;;;;;;;25.73;34.67;100893.81;5056912;28;764;-31
2021/05/23 06:19:04;;;;;;;;;;;;;;;25.78;34.86;100894.16;5056134;28;806;-31
2021/05/23 06:21:29;;;;;;;;;;;;;;;25.80;34.61;100896.69;5056756;28;851;-36
2021/05/23 06:23:55;;;;;;;;;;;;;;;25.82;34.78;100896.50;5056634;28;786;-35
2021/05/23 06:26:22;;;;;;;;;;;;;;;25.95;34.73;100898.66;5056588;28;764;-35
2021/05/23 06:28:48;;;;;;;;;;;;;;;26.03;34.33;100888.72;5056258;28;1917;-36
2021/05/23 06:31:13;;;;;;;;;;;;;;;26.03;34.47;100885.16;5056427;28;756;-34
2021/05/23 06:33:38;;;;;;;;;;;;;;;26.09;34.45;100891.75;5056338;28;763;-37
2021/05/23 06:36:04;;;;;;;;;;;;;;;26.09;34.59;100886.34;5056913;28;756;-34
2021/05/23 06:38:29;;;;;;;;;;;;;;;26.15;34.12;100889.19;5056315;28;827;-34
2021/05/23 06:40:54;;;;;;;;;;;;;;;26.13;34.35;100891.22;5056573;28;788;-38
2021/05/23 06:43:20;;;;;;;;;;;;;;;26.20;34.34;100894.06;5056275;28;1018;-35
2021/05/23 06:45:45;;;;;;;;;;;;;;;26.29;34.21;100893.00;5056330;28;851;-36
2021/05/23 06:48:10;;;;;;;;;;;;;;;26.22;34.35;100893.88;5056006;28;1952;-33
2021/05/23 06:50:37;;;;;;;;;;;;;;;26.32;33.94;100899.06;5056203;28;863;-34
2021/05/23 06:53:02;;;;;;;;;;;;;;;26.37;34.03;100905.69;5056476;28;744;-37
2021/05/23 06:55:28;;;;;;;;;;;;;;;26.42;34.04;100902.44;5056382;28;799;-36
2021/05/23 06:57:53;;;;;;;;;;;;;;;26.50;33.92;100896.16;5056120;28;999;-34
2021/05/23 07:00:19;;;;;;;;;;;;;;;26.53;33.93;100901.22;5056160;28;817;-35
2021/05/23 07:02:45;;;;;;;;;;;;;;;26.51;33.81;100890.59;5056355;28;822;-34
2021/05/23 07:05:10;;;;;;;;;;;;;;;26.55;33.75;100895.63;5055984;28;772;-34
2021/05/23 07:07:35;;;;;;;;;;;;;;;26.57;33.86;100899.00;5055887;28;1901;-35
2021/05/23 07:10:01;;;;;;;;;;;;;;;26.72;33.84;100894.56;5056171;28;1132;-35
2021/05/23 07:12:26;;;;;;;;;;;;;;;26.72;33.69;100893.72;5055700;28;1073;-36
2021/05/23 07:14:51;;;;;;;;;;;;;;;26.93;33.32;100897.63;5059388;28;1034;-33
2021/05/23 07:17:16;;;;;;;;;;;;;;;27.22;32.85;100898.81;5059930;28;812;-33
2021/05/23 07:19:42;;;;;;;;;;;;;;;27.30;32.86;100895.22;5059564;28;827;-33
2021/05/23 07:22:07;;;;;;;;;;;;;;;27.12;33.18;100899.06;5060203;28;771;-33
2021/05/23 07:24:32;;;;;;;;;;;;;;;27.10;33.21;100904.66;5059607;28;1490;-33
2021/05/23 07:26:57;;;;;;;;;;;;;;;26.98;33.46;100901.47;5059570;28;874;-33
2021/05/23 07:29:23;;;;;;;;;;;;;;;27.01;33.17;100900.28;5059422;28;1974;-33
2021/05/23 07:31:48;;;;;;;;;;;;;;;27.03;33.41;100895.56;5059861;28;803;-32
2021/05/23 07:34:13;;;;;;;;;;;;;;;26.97;33.35;100888.16;5059121;28;788;-32
2021/05/23 07:36:39;;;;;;;;;;;;;;;27.00;33.21;100885.94;5059760;28;902;-32
2021/05/23 07:39:04;;;;;;;;;;;;;;;27.07;33.19;100888.81;5059838;28;765;-32
2021/05/23 07:41:30;;;;;;;;;;;;;;;27.08;33.37;100889.63;5059048;28;841;-32
2021/05/23 07:43:55;;;;;;;;;;;;;;;27.13;33.26;100893.47;5059259;28;952;-33
2021/05/23 07:46:20;;;;;;;;;;;;;;;27.16;33.03;100894.97;5059448;28;763;-33
2021/05/23 07:48:45;;;;;;;;;;;;;;;27.20;33.12;100900.84;5058826;28;1902;-33
2021/05/23 07:51:11;;;;;;;;;;;;;;;27.19;33.07;100899.19;5059429;28;799;-33
2021/05/23 07:53:36;;;;;;;;;;;;;;;27.20;33.04;100900.84;5059378;28;823;-33
2021/05/23 07:56:01;;;;;;;;;;;;;;;27.24;33.13;100905.72;5058788;28;767;-32
2021/05/23 07:58:27;;;;;;;;;;;;;;;27.30;32.80;100906.03;5058552;28;1003;-33
2021/05/23 08:00:53;;;;;;;;;;;;;;;27.21;33.15;100903.38;5058961;28;735;-33
2021/05/23 08:03:18;;;;;;;;;;;;;;;27.22;32.97;100898.81;5058777;28;879;-33
2021/05/23 08:05:43;;;;;;;;;;;;;;;27.30;33.13;100898.75;5059136;28;747;-33
2021/05/23 08:08:08;;;;;;;;;;;;;;;27.30;32.78;100898.75;5058973;28;1957;-33
2021/05/23 08:10:34;;;;;;;;;;;;;;;27.34;32.81;100912.75;5058605;28;1108;-33
2021/05/23 08:12:59;;;;;;;;;;;;;;;27.38;32.76;100908.66;5058625;28;1155;-32
2021/05/23 08:15:24;;;;;;;;;;;;;;;27.35;32.82;100912.56;5058726;28;799;-33
2021/05/23 08:17:53;;;;;;;;;;;;;;;27.37;33.19;100917.78;5058219;28;480;-33
2021/05/23 08:20:18;;;;;;;;;;;;;;;27.38;32.84;100922.16;5058913;28;800;-33
2021/05/23 08:22:43;;;;;;;;;;;;;;;27.37;32.75;100915.94;5058105;28;1513;-33
2021/05/23 08:25:09;;;;;;;;;;;;;;;27.39;32.90;100913.06;5057597;28;748;-33
2021/05/23 08:27:34;;;;;;;;;;;;;;;27.41;32.74;100916.41;5058389;28;1918;-33
2021/05/23 08:30:00;;;;;;;;;;;;;;;27.41;32.65;100911.00;5058634;28;755;-33
2021/05/23 08:32:26;;;;;;;;;;;;;;;27.47;32.62;100912.16;5058171;28;827;-33
2021/05/23 08:34:51;;;;;;;;;;;;;;;27.53;32.13;100910.59;5058542;28;768;-32
2021/05/23 08:37:17;;;;;;;;;;;;;;;27.55;31.79;100909.38;5058444;28;831;-32
2021/05/23 08:39:42;;;;;;;;;;;;;;;27.57;32.18;100912.75;5057666;28;852;-33
2021/05/23 08:42:08;;;;;;;;;;;;;;;27.57;31.72;100912.75;5058294;28;835;-33
2021/05/23 08:44:33;;;;;;;;;;;;;;;27.56;31.92;100911.03;5060094;28;943;-33
2021/05/23 08:46:59;;;;;;;;;;;;;;;27.56;31.74;100908.34;5058236;28;830;-32
2021/05/23 08:49:25;;;;;;;;;;;;;;;27.53;31.61;100916.00;5039892;28;1910;-32
2021/05/23 08:51:50;;;;;;;;;;;;;;;27.56;31.42;100913.75;5058281;28;769;-32
2021/05/23 08:54:16;;;;;;;;;;;;;;;27.61;31.27;100915.91;5057828;28;724;-32
2021/05/23 08:56:42;;;;;;;;;;;;;;;27.63;31.33;100920.09;5057928;28;808;-32
2021/05/23 08:59:07;;;;;;;;;;;;;;;27.64;31.03;100915.56;5057929;28;952;-33
2021/05/23 09:01:33;;;;;;;;;;;;;;;27.66;30.66;100915.38;5057247;28;820;-32
2021/05/23 09:03:59;;;;;;;;;;;;;;;27.65;30.73;100916.38;5057956;28;760;-33
2021/05/23 09:06:28;;;;;;;;;;;;;;;27.67;31.01;100919.75;5057992;28;771;-35
2021/05/23 09:08:57;;;;;;;;;;;;;;;27.61;30.87;100924.03;5057285;28;1969;-34
2021/05/23 09:11:22;;;;;;;;;;;;;;;27.52;31.03;100920.53;5037771;28;1077;-34
2021/05/23 09:13:49;;;;;;;;;;;;;;;27.60;30.92;100920.47;5047617;28;976;-33
2021/05/23 09:16:14;;;;;;;;;;;;;;;27.56;31.05;100919.16;5056998;28;815;-33
2021/05/23 09:18:39;;;;;;;;;;;;;;;27.68;30.94;100910.59;5057615;28;760;-32
2021/05/23 09:21:05;;;;;;;;;;;;;;;27.66;30.69;100908.06;5057731;28;750;-33
2021/05/23 09:23:38;;;;;;;;;;;;;;;27.61;30.85;100905.13;5057084;28;863;-33
2021/05/23 09:26:04;;;;;;;;;;;;;;;27.65;30.60;100906.41;5057667;28;859;-34
2021/05/23 09:28:29;;;;;;;;;;;;;;;27.72;30.11;100893.03;5057124;28;1909;-33
2021/05/23 09:30:54;;;;;;;;;;;;;;;27.68;30.43;100891.69;5056509;28;800;-31
2021/05/23 09:33:20;;;;;;;;;;;;;;;27.71;30.30;100884.09;5057802;28;768;-33
2021/05/23 09:35:45;;;;;;;;;;;;;;;27.75;30.16;100880.00;5057396;28;788;-33
2021/05/23 09:38:12;;;;;;;;;;;;;;;27.73;29.84;100878.50;5056719;28;546;-33
2021/05/23 09:40:38;;;;;;;;;;;;;;;27.70;29.91;100868.91;5057226;28;743;-33
2021/05/23 09:43:05;;;;;;;;;;;;;;;27.72;29.83;100872.25;5056803;28;948;-32
2021/05/23 09:45:43;;;;;;;;;;;;;;;27.73;29.84;100870.38;5057802;28;790;-33
2021/05/23 09:48:15;;;;;;;;;;;;;;;27.79;29.71;100869.66;5057391;28;1902;-32
2021/05/23 09:50:41;;;;;;;;;;;;;;;27.77;29.76;100874.41;5057006;28;771;-33
2021/05/23 09:53:18;;;;;;;;;;;;;;;27.79;29.56;100872.38;5056083;28;851;-32
2021/05/23 09:55:53;;;;;;;;;;;;;;;27.81;29.73;100880.28;5057071;28;863;-31
2021/05/23 09:58:19;;;;;;;;;;;;;;;27.76;29.50;100867.31;5056672;28;943;-33
2021/05/23 10:00:44;;;;;;;;;;;;;;;27.81;29.60;100872.19;5056628;28;953;-33
2021/05/23 10:03:09;;;;;;;;;;;;;;;27.81;29.80;100883.81;5056921;28;778;-33
2021/05/23 10:05:43;;;;;;;;;;;;;;;27.86;29.78;100886.81;5038747;28;1314;-33
2021/05/23 10:08:14;;;;;;;;;;;;;;;27.79;29.58;100885.88;5056176;28;1909;-34
2021/05/23 10:10:39;;;;;;;;;;;;;;;27.73;29.95;100892.00;5056733;28;1140;-32
2021/05/23 10:13:05;;;;;;;;;;;;;;;27.77;29.83;100897.88;5056130;28;1270;-34
2021/05/23 10:15:30;;;;;;;;;;;;;;;27.80;29.85;100900.22;5056735;28;843;-33
2021/05/23 10:17:55;;;;;;;;;;;;;;;27.77;29.89;100900.59;5055466;28;916;-33
2021/05/23 10:20:20;;;;;;;;;;;;;;;27.77;29.82;100893.34;5039121;28;811;-33
2021/05/23 10:22:46;;;;;;;;;;;;;;;27.80;29.61;100890.25;5056411;28;829;-31
2021/05/23 10:25:11;;;;;;;;;;;;;;;27.81;29.90;100878.41;5038745;28;819;-33
2021/05/23 10:27:38;;;;;;;;;;;;;;;27.77;29.69;100882.53;5038414;28;1960;-31
2021/05/23 10:30:03;;;;;;;;;;;;;;;27.77;29.98;100887.06;5037709;28;1000;-32
2021/05/23 10:32:30;;;;;;;;;;;;;;;27.82;29.54;100887.38;5056488;28;823;-32
2021/05/23 10:34:55;;;;;;;;;;;;;;;27.80;29.55;100892.97;5056304;28;838;-32
2021/05/23 10:37:26;;;;;;;;;;;;;;;27.72;29.94;100887.63;5056556;28;808;-32
2021/05/23 10:39:52;;;;;;;;;;;;;;;27.71;29.65;100888.66;5056352;28;795;-34
2021/05/23 10:42:27;;;;;;;;;;;;;;;27.90;29.76;100899.94;5056626;28;787;-32
2021/05/23 10:44:54;;;;;;;;;;;;;;;28.04;29.60;100884.78;5055707;28;992;-30
2021/05/23 10:47:24;;;;;;;;;;;;;;;28.15;29.35;100883.47;5056388;28;845;-32
2021/05/23 10:50:00;;;;;;;;;;;;;;;28.24;29.13;100882.34;5042035;28;1898;-36
2021/05/23 10:52:28;;;;;;;;;;;;;;;28.26;29.31;100880.28;5059941;28;807;-36
2021/05/23 10:54:57;;;;;;;;;;;;;;;28.31;28.98;100885.97;5061061;28;790;-36
2021/05/23 10:57:23;;;;;;;;;;;;;;;28.38;29.02;100880.69;5060017;28;853;-36
2021/05/23 11:00:00;;;;;;;;;;;;;;;28.40;28.74;100883.19;5059978;28;1003;-34
2021/05/23 11:02:35;;;;;;;;;;;;;;;28.42;28.95;100882.00;5060323;28;804;-36
2021/05/23 11:05:04;;;;;;;;;;;;;;;28.46;28.66;100883.28;5060109;28;835;-36
2021/05/23 11:07:30;;;;;;;;;;;;;;;28.47;29.02;100881.41;5059808;28;1963;-32
2021/05/23 11:09:55;;;;;;;;;;;;;;;28.56;28.67;100879.44;5060092;28;1117;-32
2021/05/23 11:12:20;;;;;;;;;;;;;;;28.56;28.62;100880.28;5059850;28;1284;-36
2021/05/23 11:14:55;;;;;;;;;;;;;;;28.59;28.69;100877.19;5059783;28;1007;-36
2021/05/23 11:17:20;;;;;;;;;;;;;;;28.56;28.92;100885.69;5060073;28;723;-34
2021/05/23 11:19:46;;;;;;;;;;;;;;;28.60;28.86;100883.44;5059731;28;916;-35
2021/05/23 11:22:11;;;;;;;;;;;;;;;28.66;28.78;100877.25;5059579;28;824;-35
2021/05/23 11:24:36;;;;;;;;;;;;;;;28.69;28.70;100885.03;5075779;28;763;-36
2021/05/23 11:27:11;;;;;;;;;;;;;;;28.78;28.54;100882.19;5059672;28;763;-38
2021/05/23 11:29:37;;;;;;;;;;;;;;;28.70;28.68;100886.69;5058914;28;1914;-40
2021/05/23 11:32:02;;;;;;;;;;;;;;;28.69;28.60;100887.72;5059727;28;847;-34
2021/05/23 11:34:28;;;;;;;;;;;;;;;28.35;27.76;100887.31;5059550;28;756;-34
2021/05/23 11:36:54;;;;;;;;;;;;;;;28.04;28.42;100891.03;5059401;28;811;-34
2021/05/23 11:39:19;;;;;;;;;;;;;;;27.83;28.63;100889.88;5059525;28;744;-33
2021/05/23 11:41:47;;;;;;;;;;;;;;;28.04;28.09;100893.75;5059154;28;819;-33
2021/05/23 11:44:14;;;;;;;;;;;;;;;27.92;28.38;100892.50;5058648;28;1011;-34
2021/05/23 11:46:40;;;;;;;;;;;;;;;27.84;28.63;100888.84;5059420;28;776;-34
2021/05/23 11:49:05;;;;;;;;;;;;;;;27.89;28.24;100892.88;5059573;28;1897;-34
2021/05/23 11:51:31;;;;;;;;;;;;;;;27.91;28.38;100885.44;5058688;28;1486;-34
2021/05/23 11:53:57;;;;;;;;;;;;;;;27.83;28.62;100891.72;5059047;28;800;-34
2021/05/23 11:56:26;;;;;;;;;;;;;;;27.82;28.79;100898.19;5059469;28;740;-35
2021/05/23 11:58:56;;;;;;;;;;;;;;;27.88;27.88;100897.44;5058663;28;1010;-32
2021/05/23 12:01:26;;;;;;;;;;;;;;;27.87;28.08;100896.63;5057697;28;823;-34
2021/05/23 12:03:54;;;;;;;;;;;;;;;27.80;28.44;100895.66;5059229;28;781;-34
2021/05/23 12:06:20;;;;;;;;;;;;;;;27.73;29.02;100895.56;5058787;28;761;-31
2021/05/23 12:08:45;;;;;;;;;;;;;;;27.85;28.57;100897.81;5058705;28;1902;-33
2021/05/23 12:11:10;;;;;;;;;;;;;;;27.90;28.11;100892.69;5058961;28;1298;-32
2021/05/23 12:13:38;;;;;;;;;;;;;;;27.82;28.14;100885.50;5057884;28;1296;-32
2021/05/23 12:16:04;;;;;;;;;;;;;;;27.77;28.93;100879.81;5059167;28;763;-33
2021/05/23 12:18:33;;;;;;;;;;;;;;;27.86;28.60;100889.50;5058898;28;851;-32
2021/05/23 12:20:58;;;;;;;;;;;;;;;27.80;28.23;100881.28;5058634;28;776;-30
2021/05/23 12:23:23;;;;;;;;;;;;;;;27.77;28.60;100877.13;5058476;28;879;-35
2021/05/23 12:25:52;;;;;;;;;;;;;;;27.75;28.63;100877.28;5041006;28;756;-34
2021/05/23 12:28:17;;;;;;;;;;;;;;;27.80;29.02;100879.44;5034091;28;1910;-31
2021/05/23 12:30:42;;;;;;;;;;;;;;;27.72;28.84;100872.25;5038088;28;808;-30
2021/05/23 12:33:08;;;;;;;;;;;;;;;27.67;28.69;100874.66;5038755;28;803;-33
2021/05/23 12:35:33;;;;;;;;;;;;;;;27.78;28.80;100880.66;5038405;28;752;-34
2021/05/23 12:38:05;;;;;;;;;;;;;;;27.74;28.51;100872.91;5038200;28;827;-35
2021/05/23 12:40:34;;;;;;;;;;;;;;;27.81;28.25;100873.00;5038608;28;828;-34
2021/05/23 12:43:12;;;;;;;;;;;;;;;27.74;28.46;100877.47;5041230;28;1024;-34
2021/05/23 12:45:38;;;;;;;;;;;;;;;27.71;28.64;100875.97;5058229;28;839;-34
2021/05/23 12:48:07;;;;;;;;;;;;;;;27.72;28.88;100879.53;5058371;28;1967;-35